« Back
NWS Peachtree City, Ga » Text Product » ATL Terminal Aerodrome Forecast


Printer-friendly Version
Current Version              Previous Versions:   1  2  3  4  5  6  7  8  9  

Terminal Aerodrome Forecast

973
FTUS42 KFFC 271726
TAFATL
TAF
KATL 271726Z 2718/2824 22004KT P6SM BKN035
     FM272100 22005KT P6SM VCSH BKN035
      TEMPO 2800/2803 VRB15G25KT 3SM -TSRA BKN025CB
     FM280400 20005KT P6SM BKN040
     FM280500 VRB03KT P6SM SCT020 BKN080
     FM281000 VRB03KT P6SM BKN015
     FM281400 16006KT P6SM BKN025 PROB30 2819/2822 3SM -TSRA
      BKN030CB=

USA.gov is the U.S. government's official web portal to all federal, state and local government web resources and services.